sensor_id;sensor_type;location;lat;lon;timestamp;pressure;altitude;pressure_sealevel;temperature;humidity
15263;BME280;7733;51.554;13.590;2023-07-08T00:01:17;100891.56;;;19.68;63.42
15263;BME280;7733;51.554;13.590;2023-07-08T00:03:43;100885.25;;;20.68;59.08
15263;BME280;7733;51.554;13.590;2023-07-08T00:06:26;100883.16;;;21.11;56.89
15263;BME280;7733;51.554;13.590;2023-07-08T00:08:52;100880.03;;;21.20;57.05
15263;BME280;7733;51.554;13.590;2023-07-08T00:11:18;100873.56;;;20.89;57.93
15263;BME280;7733;51.554;13.590;2023-07-08T00:13:44;100877.47;;;21.36;55.69
15263;BME280;7733;51.554;13.590;2023-07-08T00:16:16;100885.13;;;20.52;59.04
15263;BME280;7733;51.554;13.590;2023-07-08T00:18:44;100867.47;;;21.22;56.47
15263;BME280;7733;51.554;13.590;2023-07-08T00:21:16;100877.75;;;21.12;56.05
15263;BME280;7733;51.554;13.590;2023-07-08T00:23:47;100877.47;;;21.36;55.64
15263;BME280;7733;51.554;13.590;2023-07-08T00:26:24;100875.06;;;21.12;55.72
15263;BME280;7733;51.554;13.590;2023-07-08T00:28:51;100877.66;;;21.14;56.53
15263;BME280;7733;51.554;13.590;2023-07-08T00:31:17;100874.53;;;21.06;56.81
15263;BME280;7733;51.554;13.590;2023-07-08T00:33:50;100874.53;;;21.06;56.63
15263;BME280;7733;51.554;13.590;2023-07-08T00:36:17;100879.91;;;20.87;57.56
15263;BME280;7733;51.554;13.590;2023-07-08T00:38:43;100889.13;;;20.61;58.70
15263;BME280;7733;51.554;13.590;2023-07-08T00:43:55;100890.28;;;20.74;57.69
15263;BME280;7733;51.554;13.590;2023-07-08T00:49:46;100895.69;;;19.96;61.10
15263;BME280;7733;51.554;13.590;2023-07-08T00:52:19;100890.97;;;20.40;59.51
15263;BME280;7733;51.554;13.590;2023-07-08T00:54:49;100897.06;;;19.22;64.72
15263;BME280;7733;51.554;13.590;2023-07-08T00:57:15;100887.97;;;19.69;62.52
15263;BME280;7733;51.554;13.590;2023-07-08T01:00:06;100896.25;;;19.63;63.22
15263;BME280;7733;51.554;13.590;2023-07-08T01:02:43;100899.78;;;20.23;60.60
15263;BME280;7733;51.554;13.590;2023-07-08T01:05:20;100897.94;;;20.44;58.81
15263;BME280;7733;51.554;13.590;2023-07-08T01:07:59;100891.31;;;20.53;58.84
15263;BME280;7733;51.554;13.590;2023-07-08T01:10:46;100896.34;;;19.81;62.61
15263;BME280;7733;51.554;13.590;2023-07-08T01:13:15;100897.59;;;20.31;59.48
15263;BME280;7733;51.554;13.590;2023-07-08T01:15:46;100892.97;;;19.57;61.88
15263;BME280;7733;51.554;13.590;2023-07-08T01:18:15;100887.44;;;20.21;59.67
15263;BME280;7733;51.554;13.590;2023-07-08T01:20:43;100880.84;;;20.29;59.85
15263;BME280;7733;51.554;13.590;2023-07-08T01:23:12;100885.94;;;20.34;59.88
15263;BME280;7733;51.554;13.590;2023-07-08T01:25:38;100885.91;;;20.15;60.41
15263;BME280;7733;51.554;13.590;2023-07-08T01:28:04;100883.13;;;20.18;59.71
15263;BME280;7733;51.554;13.590;2023-07-08T01:30:31;100884.47;;;19.69;61.79
15263;BME280;7733;51.554;13.590;2023-07-08T01:33:02;100879.97;;;19.49;62.45
15263;BME280;7733;51.554;13.590;2023-07-08T01:35:30;100878.13;;;19.71;61.04
15263;BME280;7733;51.554;13.590;2023-07-08T01:38:02;100904.59;;;19.54;60.93
15263;BME280;7733;51.554;13.590;2023-07-08T01:40:36;100904.19;;;18.99;63.71
15263;BME280;7733;51.554;13.590;2023-07-08T01:43:05;100893.19;;;19.51;61.72
15263;BME280;7733;51.554;13.590;2023-07-08T01:45:39;100879.94;;;19.71;60.76
15263;BME280;7733;51.554;13.590;2023-07-08T01:48:15;100884.38;;;19.91;58.61
15263;BME280;7733;51.554;13.590;2023-07-08T01:51:01;100882.06;;;19.83;60.06
15263;BME280;7733;51.554;13.590;2023-07-08T01:53:40;100876.81;;;20.00;59.02
15263;BME280;7733;51.554;13.590;2023-07-08T01:56:08;100879.06;;;19.70;60.99
15263;BME280;7733;51.554;13.590;2023-07-08T01:58:34;100875.16;;;19.37;62.14
15263;BME280;7733;51.554;13.590;2023-07-08T02:01:01;100874.72;;;19.88;59.79
15263;BME280;7733;51.554;13.590;2023-07-08T02:03:27;100873.00;;;19.67;59.95
15263;BME280;7733;51.554;13.590;2023-07-08T02:05:53;100874.06;;;19.42;61.32
15263;BME280;7733;51.554;13.590;2023-07-08T02:08:20;100878.84;;;19.55;60.23
15263;BME280;7733;51.554;13.590;2023-07-08T02:10:51;100874.84;;;18.80;63.60
15263;BME280;7733;51.554;13.590;2023-07-08T02:13:18;100876.50;;;19.47;60.80
15263;BME280;7733;51.554;13.590;2023-07-08T02:15:44;100881.00;;;19.25;61.48
15263;BME280;7733;51.554;13.590;2023-07-08T02:18:10;100880.28;;;18.99;62.81
15263;BME280;7733;51.554;13.590;2023-07-08T02:20:36;100883.03;;;19.18;61.71
15263;BME280;7733;51.554;13.590;2023-07-08T02:23:01;100881.28;;;19.39;60.50
15263;BME280;7733;51.554;13.590;2023-07-08T02:25:27;100877.25;;;19.08;62.00
15263;BME280;7733;51.554;13.590;2023-07-08T02:27:54;100870.63;;;18.75;63.87
15263;BME280;7733;51.554;13.590;2023-07-08T02:30:23;100880.09;;;18.59;64.37
15263;BME280;7733;51.554;13.590;2023-07-08T02:32:49;100867.78;;;18.79;64.02
15263;BME280;7733;51.554;13.590;2023-07-08T02:35:23;100883.38;;;18.67;64.78
15263;BME280;7733;51.554;13.590;2023-07-08T02:37:49;100878.63;;;18.51;64.88
15263;BME280;7733;51.554;13.590;2023-07-08T02:40:15;100870.84;;;18.47;64.41
15263;BME280;7733;51.554;13.590;2023-07-08T02:42:41;100869.22;;;18.88;62.67
15263;BME280;7733;51.554;13.590;2023-07-08T02:45:07;100872.38;;;18.76;63.44
15263;BME280;7733;51.554;13.590;2023-07-08T02:47:33;100863.59;;;18.74;63.38
15263;BME280;7733;51.554;13.590;2023-07-08T02:49:59;100859.38;;;18.90;62.71
15263;BME280;7733;51.554;13.590;2023-07-08T02:52:24;100861.06;;;18.93;63.00
15263;BME280;7733;51.554;13.590;2023-07-08T02:54:50;100868.78;;;18.99;62.29
15263;BME280;7733;51.554;13.590;2023-07-08T02:57:16;100865.88;;;18.38;65.02
15263;BME280;7733;51.554;13.590;2023-07-08T02:59:41;100884.16;;;17.49;69.48
15263;BME280;7733;51.554;13.590;2023-07-08T03:02:07;100877.88;;;17.76;69.07
15263;BME280;7733;51.554;13.590;2023-07-08T03:04:33;100868.41;;;18.17;66.84
15263;BME280;7733;51.554;13.590;2023-07-08T03:07:00;100872.19;;;18.57;63.95
15263;BME280;7733;51.554;13.590;2023-07-08T03:09:26;100876.09;;;18.25;65.76
15263;BME280;7733;51.554;13.590;2023-07-08T03:11:52;100865.13;;;18.34;65.30
15263;BME280;7733;51.554;13.590;2023-07-08T03:14:18;100865.25;;;18.31;64.96
15263;BME280;7733;51.554;13.590;2023-07-08T03:16:44;100866.19;;;18.52;63.72
15263;BME280;7733;51.554;13.590;2023-07-08T03:19:11;100864.03;;;18.63;63.39
15263;BME280;7733;51.554;13.590;2023-07-08T03:21:41;100864.81;;;18.18;65.66
15263;BME280;7733;51.554;13.590;2023-07-08T03:24:10;100863.06;;;18.42;64.84
15263;BME280;7733;51.554;13.590;2023-07-08T03:26:36;100868.25;;;18.22;65.74
15263;BME280;7733;51.554;13.590;2023-07-08T03:29:02;100864.88;;;17.93;66.79
15263;BME280;7733;51.554;13.590;2023-07-08T03:31:28;100860.50;;;18.16;65.45
15263;BME280;7733;51.554;13.590;2023-07-08T03:33:54;100861.28;;;18.41;64.10
15263;BME280;7733;51.554;13.590;2023-07-08T03:36:20;100870.09;;;18.43;63.85
15263;BME280;7733;51.554;13.590;2023-07-08T03:38:55;100878.88;;;17.22;69.61
15263;BME280;7733;51.554;13.590;2023-07-08T03:41:22;100871.56;;;17.29;69.93
15263;BME280;7733;51.554;13.590;2023-07-08T03:43:48;100865.31;;;17.81;67.87
15263;BME280;7733;51.554;13.590;2023-07-08T03:46:18;100873.88;;;17.89;67.20
15263;BME280;7733;51.554;13.590;2023-07-08T03:48:44;100870.53;;;17.58;68.91
15263;BME280;7733;51.554;13.590;2023-07-08T03:51:22;100871.28;;;17.63;68.94
15263;BME280;7733;51.554;13.590;2023-07-08T03:53:49;100871.78;;;17.74;67.79
15263;BME280;7733;51.554;13.590;2023-07-08T03:56:16;100874.47;;;16.95;71.59
15263;BME280;7733;51.554;13.590;2023-07-08T03:58:42;100874.47;;;17.48;68.98
15263;BME280;7733;51.554;13.590;2023-07-08T04:01:18;100879.81;;;17.96;66.46
15263;BME280;7733;51.554;13.590;2023-07-08T04:03:46;100878.59;;;18.06;66.00
15263;BME280;7733;51.554;13.590;2023-07-08T04:06:14;100876.22;;;18.45;64.60
15263;BME280;7733;51.554;13.590;2023-07-08T04:08:40;100871.81;;;18.68;63.66
15263;BME280;7733;51.554;13.590;2023-07-08T04:11:06;100874.78;;;18.59;64.74
15263;BME280;7733;51.554;13.590;2023-07-08T04:13:32;100872.63;;;18.70;65.15
15263;BME280;7733;51.554;13.590;2023-07-08T04:16:04;100868.28;;;18.89;64.92
15263;BME280;7733;51.554;13.590;2023-07-08T04:18:30;100870.03;;;18.90;64.66
15263;BME280;7733;51.554;13.590;2023-07-08T04:20:56;100871.56;;;18.50;68.09
15263;BME280;7733;51.554;13.590;2023-07-08T04:23:23;100878.25;;;18.61;67.57
15263;BME280;7733;51.554;13.590;2023-07-08T04:25:52;100877.38;;;18.60;67.74
15263;BME280;7733;51.554;13.590;2023-07-08T04:28:20;100869.22;;;18.88;65.80
15263;BME280;7733;51.554;13.590;2023-07-08T04:30:48;100872.63;;;18.70;67.11
15263;BME280;7733;51.554;13.590;2023-07-08T04:33:15;100871.75;;;18.91;66.60
15263;BME280;7733;51.554;13.590;2023-07-08T04:35:43;100874.06;;;18.08;71.10
15263;BME280;7733;51.554;13.590;2023-07-08T04:38:21;100869.47;;;18.59;68.76
15263;BME280;7733;51.554;13.590;2023-07-08T04:40:49;100865.56;;;19.12;65.63
15263;BME280;7733;51.554;13.590;2023-07-08T04:43:17;100868.41;;;19.08;66.37
15263;BME280;7733;51.554;13.590;2023-07-08T04:45:47;100858.72;;;19.27;65.29
15263;BME280;7733;51.554;13.590;2023-07-08T04:48:17;100863.38;;;19.22;66.12
15263;BME280;7733;51.554;13.590;2023-07-08T04:50:48;100861.72;;;19.40;64.89
15263;BME280;7733;51.554;13.590;2023-07-08T04:53:14;100864.00;;;19.49;66.07
15263;BME280;7733;51.554;13.590;2023-07-08T04:55:56;100863.22;;;19.67;64.66
15263;BME280;7733;51.554;13.590;2023-07-08T04:58:22;100855.50;;;19.61;66.18
15263;BME280;7733;51.554;13.590;2023-07-08T05:00:48;100865.34;;;19.59;66.13
15263;BME280;7733;51.554;13.590;2023-07-08T05:03:14;100869.72;;;19.81;65.10
15263;BME280;7733;51.554;13.590;2023-07-08T05:05:40;100875.25;;;20.15;63.37
15263;BME280;7733;51.554;13.590;2023-07-08T05:08:07;100866.88;;;20.24;63.15
15263;BME280;7733;51.554;13.590;2023-07-08T05:10:33;100874.38;;;20.54;61.51
15263;BME280;7733;51.554;13.590;2023-07-08T05:13:00;100873.88;;;20.64;61.99
15263;BME280;7733;51.554;13.590;2023-07-08T05:15:26;100871.25;;;20.82;62.16
15263;BME280;7733;51.554;13.590;2023-07-08T05:17:52;100871.13;;;20.85;65.85
15263;BME280;7733;51.554;13.590;2023-07-08T05:20:18;100866.44;;;21.07;66.56
15263;BME280;7733;51.554;13.590;2023-07-08T05:22:46;100870.38;;;21.17;66.64
15263;BME280;7733;51.554;13.590;2023-07-08T05:25:13;100860.44;;;21.38;65.99
15263;BME280;7733;51.554;13.590;2023-07-08T05:27:39;100866.34;;;21.45;65.41
15263;BME280;7733;51.554;13.590;2023-07-08T05:30:06;100861.63;;;21.50;66.63
15263;BME280;7733;51.554;13.590;2023-07-08T05:32:32;100874.38;;;21.78;64.67
15263;BME280;7733;51.554;13.590;2023-07-08T05:34:58;100873.88;;;21.54;67.11
15263;BME280;7733;51.554;13.590;2023-07-08T05:37:24;100874.72;;;21.37;68.82
15263;BME280;7733;51.554;13.590;2023-07-08T05:39:55;100880.47;;;21.64;66.68
15263;BME280;7733;51.554;13.590;2023-07-08T05:42:21;100884.16;;;21.62;68.49
15263;BME280;7733;51.554;13.590;2023-07-08T05:44:48;100886.50;;;21.85;66.23
15263;BME280;7733;51.554;13.590;2023-07-08T05:47:14;100892.28;;;22.10;67.13
15263;BME280;7733;51.554;13.590;2023-07-08T05:49:41;100885.00;;;22.30;65.82
15263;BME280;7733;51.554;13.590;2023-07-08T05:52:07;100884.94;;;22.47;60.39
15263;BME280;7733;51.554;13.590;2023-07-08T05:54:38;100885.53;;;22.52;62.43
15263;BME280;7733;51.554;13.590;2023-07-08T05:57:05;100884.34;;;22.73;59.32
15263;BME280;7733;51.554;13.590;2023-07-08T05:59:31;100886.31;;;23.01;58.12
15263;BME280;7733;51.554;13.590;2023-07-08T06:01:57;100889.25;;;23.13;57.96
15263;BME280;7733;51.554;13.590;2023-07-08T06:04:23;100901.31;;;23.20;57.69
15263;BME280;7733;51.554;13.590;2023-07-08T06:06:49;100895.56;;;23.42;56.98
15263;BME280;7733;51.554;13.590;2023-07-08T06:09:15;100895.53;;;23.57;56.91
15263;BME280;7733;51.554;13.590;2023-07-08T06:11:40;100892.53;;;23.78;55.97
15263;BME280;7733;51.554;13.590;2023-07-08T06:14:06;100897.13;;;23.76;56.74
15263;BME280;7733;51.554;13.590;2023-07-08T06:16:32;100897.78;;;23.65;54.67
15263;BME280;7733;51.554;13.590;2023-07-08T06:19:00;100892.84;;;23.87;53.08
15263;BME280;7733;51.554;13.590;2023-07-08T06:21:26;100891.72;;;24.06;52.35
15263;BME280;7733;51.554;13.590;2023-07-08T06:23:52;100895.63;;;24.14;51.58
15263;BME280;7733;51.554;13.590;2023-07-08T06:26:18;100890.72;;;24.21;50.73
15263;BME280;7733;51.554;13.590;2023-07-08T06:28:43;100893.66;;;24.32;50.52
15263;BME280;7733;51.554;13.590;2023-07-08T06:31:09;100887.78;;;24.40;50.03
15263;BME280;7733;51.554;13.590;2023-07-08T06:33:35;100891.53;;;24.37;50.02
15263;BME280;7733;51.554;13.590;2023-07-08T06:36:01;100884.03;;;24.42;50.48
15263;BME280;7733;51.554;13.590;2023-07-08T06:38:27;100892.50;;;24.36;50.51
15263;BME280;7733;51.554;13.590;2023-07-08T06:40:53;100893.75;;;24.45;50.50
15263;BME280;7733;51.554;13.590;2023-07-08T06:43:18;100890.16;;;24.58;50.00
15263;BME280;7733;51.554;13.590;2023-07-08T06:45:44;100892.41;;;24.79;49.91
15263;BME280;7733;51.554;13.590;2023-07-08T06:48:10;100889.03;;;25.04;49.27
15263;BME280;7733;51.554;13.590;2023-07-08T06:50:37;100891.72;;;25.04;49.51
15263;BME280;7733;51.554;13.590;2023-07-08T06:53:03;100885.31;;;25.19;49.39
15263;BME280;7733;51.554;13.590;2023-07-08T06:55:28;100885.06;;;25.09;48.65
15263;BME280;7733;51.554;13.590;2023-07-08T06:57:55;100881.06;;;25.42;47.60
15263;BME280;7733;51.554;13.590;2023-07-08T07:00:21;100888.78;;;25.34;49.01
15263;BME280;7733;51.554;13.590;2023-07-08T07:02:47;100883.75;;;25.42;48.83
15263;BME280;7733;51.554;13.590;2023-07-08T07:05:13;100877.44;;;25.56;46.59
15263;BME280;7733;51.554;13.590;2023-07-08T07:07:39;100881.34;;;25.64;44.27
15263;BME280;7733;51.554;13.590;2023-07-08T07:10:05;100876.97;;;25.89;44.50
15263;BME280;7733;51.554;13.590;2023-07-08T07:12:33;100875.97;;;26.02;44.22
15263;BME280;7733;51.554;13.590;2023-07-08T07:15:00;100875.56;;;25.96;44.17
15263;BME280;7733;51.554;13.590;2023-07-08T07:17:26;100862.66;;;26.01;43.81
15263;BME280;7733;51.554;13.590;2023-07-08T07:19:53;100872.00;;;25.95;43.97
15263;BME280;7733;51.554;13.590;2023-07-08T07:22:19;100867.81;;;25.78;43.94
15263;BME280;7733;51.554;13.590;2023-07-08T07:24:45;100865.66;;;26.09;43.93
15263;BME280;7733;51.554;13.590;2023-07-08T07:27:11;100865.28;;;26.52;42.47
15263;BME280;7733;51.554;13.590;2023-07-08T07:29:46;100866.72;;;26.45;42.02
15263;BME280;7733;51.554;13.590;2023-07-08T07:32:14;100860.28;;;26.34;43.13
15263;BME280;7733;51.554;13.590;2023-07-08T07:34:40;100869.09;;;26.11;43.70
15263;BME280;7733;51.554;13.590;2023-07-08T07:37:10;100863.59;;;26.75;41.93
15263;BME280;7733;51.554;13.590;2023-07-08T07:39:37;100864.22;;;26.78;42.66
15263;BME280;7733;51.554;13.590;2023-07-08T07:42:03;100870.63;;;27.01;42.51
15263;BME280;7733;51.554;13.590;2023-07-08T07:44:29;100864.25;;;27.26;41.85
15263;BME280;7733;51.554;13.590;2023-07-08T07:46:54;100867.72;;;27.39;41.46
15263;BME280;7733;51.554;13.590;2023-07-08T07:49:21;100864.56;;;27.45;40.73
15263;BME280;7733;51.554;13.590;2023-07-08T07:51:47;100856.44;;;27.69;40.94
15263;BME280;7733;51.554;13.590;2023-07-08T07:54:14;100859.88;;;27.71;40.74
15263;BME280;7733;51.554;13.590;2023-07-08T07:56:40;100852.44;;;28.08;39.04
15263;BME280;7733;51.554;13.590;2023-07-08T07:59:07;100853.41;;;28.18;40.15
15263;BME280;7733;51.554;13.590;2023-07-08T08:01:32;100853.31;;;28.31;38.96
15263;BME280;7733;51.554;13.590;2023-07-08T08:03:58;100854.41;;;28.51;38.67
15263;BME280;7733;51.554;13.590;2023-07-08T08:06:24;100859.06;;;28.49;38.81
15263;BME280;7733;51.554;13.590;2023-07-08T08:08:50;100853.56;;;28.83;39.45
15263;BME280;7733;51.554;13.590;2023-07-08T08:11:16;100853.97;;;28.89;38.70
15263;BME280;7733;51.554;13.590;2023-07-08T08:13:42;100856.13;;;29.06;38.96
15263;BME280;7733;51.554;13.590;2023-07-08T08:16:08;100857.66;;;28.77;38.81
15263;BME280;7733;51.554;13.590;2023-07-08T08:18:34;100853.50;;;29.37;38.48
15263;BME280;7733;51.554;13.590;2023-07-08T08:21:00;100851.66;;;29.49;37.96
15263;BME280;7733;51.554;13.590;2023-07-08T08:23:26;100852.03;;;29.65;37.73
15263;BME280;7733;51.554;13.590;2023-07-08T08:25:52;100854.59;;;29.87;37.52
15263;BME280;7733;51.554;13.590;2023-07-08T08:28:18;100854.53;;;30.39;36.66
15263;BME280;7733;51.554;13.590;2023-07-08T08:30:48;100845.91;;;30.54;35.29
15263;BME280;7733;51.554;13.590;2023-07-08T08:33:15;100853.22;;;30.64;35.53
15263;BME280;7733;51.554;13.590;2023-07-08T08:35:42;100855.66;;;30.67;34.86
15263;BME280;7733;51.554;13.590;2023-07-08T08:38:08;100845.97;;;30.74;35.21
15263;BME280;7733;51.554;13.590;2023-07-08T08:40:34;100848.81;;;30.82;35.33
15263;BME280;7733;51.554;13.590;2023-07-08T08:43:16;100855.13;;;30.92;34.93
15263;BME280;7733;51.554;13.590;2023-07-08T08:45:59;100858.00;;;31.20;35.04
15263;BME280;7733;51.554;13.590;2023-07-08T08:48:30;100851.16;;;31.44;34.45
15263;BME280;7733;51.554;13.590;2023-07-08T08:51:10;100851.28;;;31.43;34.34
15263;BME280;7733;51.554;13.590;2023-07-08T08:53:38;100852.28;;;31.23;34.27
15263;BME280;7733;51.554;13.590;2023-07-08T08:56:39;100861.38;;;31.80;33.60
15263;BME280;7733;51.554;13.590;2023-07-08T08:59:30;100862.09;;;32.28;31.97
15263;BME280;7733;51.554;13.590;2023-07-08T09:05:10;100850.69;;;32.52;30.96
15263;BME280;7733;51.554;13.590;2023-07-08T09:10:51;100847.34;;;31.94;30.91
15263;BME280;7733;51.554;13.590;2023-07-08T09:21:54;100834.97;;;33.27;29.82
15263;BME280;7733;51.554;13.590;2023-07-08T09:24:50;100840.44;;;33.09;28.92
15263;BME280;7733;51.554;13.590;2023-07-08T09:27:17;100843.06;;;32.56;29.18
15263;BME280;7733;51.554;13.590;2023-07-08T09:29:43;100841.50;;;32.98;29.43
15263;BME280;7733;51.554;13.590;2023-07-08T09:35:06;100832.75;;;33.05;29.62
15263;BME280;7733;51.554;13.590;2023-07-08T09:37:36;100831.81;;;33.57;28.90
15263;BME280;7733;51.554;13.590;2023-07-08T09:40:30;100832.75;;;33.66;28.57
15263;BME280;7733;51.554;13.590;2023-07-08T09:43:25;100825.09;;;34.30;27.53
15263;BME280;7733;51.554;13.590;2023-07-08T09:45:51;100825.63;;;33.91;27.51
15263;BME280;7733;51.554;13.590;2023-07-08T09:48:28;100831.22;;;33.90;27.21
15263;BME280;7733;51.554;13.590;2023-07-08T09:50:57;100835.84;;;33.97;27.93
15263;BME280;7733;51.554;13.590;2023-07-08T09:53:24;100834.03;;;34.06;28.00
15263;BME280;7733;51.554;13.590;2023-07-08T09:55:51;100838.09;;;34.44;28.06
15263;BME280;7733;51.554;13.590;2023-07-08T09:58:25;100833.28;;;34.30;27.10
15263;BME280;7733;51.554;13.590;2023-07-08T10:01:00;100834.41;;;34.61;26.97
15263;BME280;7733;51.554;13.590;2023-07-08T10:03:37;100834.53;;;35.10;26.81
15263;BME280;7733;51.554;13.590;2023-07-08T10:06:10;100824.97;;;35.22;27.33
15263;BME280;7733;51.554;13.590;2023-07-08T10:08:42;100825.00;;;35.39;27.06
15263;BME280;7733;51.554;13.590;2023-07-08T10:11:32;100824.66;;;34.85;26.94
15263;BME280;7733;51.554;13.590;2023-07-08T10:14:11;100821.16;;;34.83;27.28
15263;BME280;7733;51.554;13.590;2023-07-08T10:16:42;100824.81;;;35.24;26.65
15263;BME280;7733;51.554;13.590;2023-07-08T10:19:16;100829.09;;;35.34;26.10
15263;BME280;7733;51.554;13.590;2023-07-08T10:27:51;100820.84;;;35.75;25.84
15263;BME280;7733;51.554;13.590;2023-07-08T10:30:25;100820.56;;;36.25;26.34
15263;BME280;7733;51.554;13.590;2023-07-08T10:33:28;100820.06;;;35.50;25.96
15263;BME280;7733;51.554;13.590;2023-07-08T10:36:25;100822.31;;;36.10;26.54
15263;BME280;7733;51.554;13.590;2023-07-08T10:44:45;100812.88;;;35.57;25.19
15263;BME280;7733;51.554;13.590;2023-07-08T10:53:26;100830.66;;;34.62;25.02
15263;BME280;7733;51.554;13.590;2023-07-08T10:58:58;100809.78;;;36.24;22.60
15263;BME280;7733;51.554;13.590;2023-07-08T11:10:28;100804.41;;;36.08;23.65
15263;BME280;7733;51.554;13.590;2023-07-08T11:13:23;100802.22;;;35.95;23.70
15263;BME280;7733;51.554;13.590;2023-07-08T11:19:00;100799.19;;;35.74;23.51
15263;BME280;7733;51.554;13.590;2023-07-08T11:21:52;100797.31;;;35.74;23.79
15263;BME280;7733;51.554;13.590;2023-07-08T11:24:48;100784.75;;;34.33;24.12
15263;BME280;7733;51.554;13.590;2023-07-08T11:27:25;100789.72;;;35.37;24.08
15263;BME280;7733;51.554;13.590;2023-07-08T11:30:02;100785.78;;;35.40;23.12
15263;BME280;7733;51.554;13.590;2023-07-08T11:32:33;100782.69;;;35.02;22.92
15263;BME280;7733;51.554;13.590;2023-07-08T11:35:04;100783.03;;;34.99;23.45
15263;BME280;7733;51.554;13.590;2023-07-08T11:37:33;100784.06;;;35.14;22.95
15263;BME280;7733;51.554;13.590;2023-07-08T11:40:18;100787.81;;;35.21;23.13
15263;BME280;7733;51.554;13.590;2023-07-08T11:42:52;100776.88;;;35.54;23.35
15263;BME280;7733;51.554;13.590;2023-07-08T11:47:49;100777.59;;;34.91;23.41
15263;BME280;7733;51.554;13.590;2023-07-08T11:50:46;100772.47;;;35.28;22.39
15263;BME280;7733;51.554;13.590;2023-07-08T11:53:45;100783.63;;;35.90;22.71
15263;BME280;7733;51.554;13.590;2023-07-08T12:01:52;100766.34;;;36.06;21.92
15263;BME280;7733;51.554;13.590;2023-07-08T12:04:35;100766.34;;;36.06;21.15
15263;BME280;7733;51.554;13.590;2023-07-08T12:07:55;100756.25;;;36.69;20.91
15263;BME280;7733;51.554;13.590;2023-07-08T12:12:58;100761.09;;;36.59;21.89
15263;BME280;7733;51.554;13.590;2023-07-08T12:15:32;100765.13;;;36.71;20.56
15263;BME280;7733;51.554;13.590;2023-07-08T12:18:12;100761.75;;;36.92;20.60
15263;BME280;7733;51.554;13.590;2023-07-08T12:20:40;100747.50;;;36.96;20.15
15263;BME280;7733;51.554;13.590;2023-07-08T12:23:19;100752.59;;;36.99;20.03
15263;BME280;7733;51.554;13.590;2023-07-08T12:25:46;100746.06;;;36.23;21.32
15263;BME280;7733;51.554;13.590;2023-07-08T12:28:14;100752.78;;;36.75;20.81
15263;BME280;7733;51.554;13.590;2023-07-08T12:30:42;100747.00;;;36.70;21.42
15263;BME280;7733;51.554;13.590;2023-07-08T12:33:14;100744.84;;;36.88;20.82
15263;BME280;7733;51.554;13.590;2023-07-08T12:35:42;100747.81;;;37.16;19.75
15263;BME280;7733;51.554;13.590;2023-07-08T12:38:32;100749.19;;;36.74;20.08
15263;BME280;7733;51.554;13.590;2023-07-08T12:41:08;100746.75;;;37.40;20.18
15263;BME280;7733;51.554;13.590;2023-07-08T12:43:35;100745.72;;;37.41;20.25
15263;BME280;7733;51.554;13.590;2023-07-08T12:46:00;100744.06;;;37.17;20.57
15263;BME280;7733;51.554;13.590;2023-07-08T12:48:34;100743.09;;;37.62;20.46
15263;BME280;7733;51.554;13.590;2023-07-08T12:51:00;100737.53;;;37.70;20.42
15263;BME280;7733;51.554;13.590;2023-07-08T12:53:25;100738.22;;;37.72;19.67
15263;BME280;7733;51.554;13.590;2023-07-08T12:55:54;100732.22;;;37.84;19.44
15263;BME280;7733;51.554;13.590;2023-07-08T12:58:27;100735.34;;;37.36;20.36
15263;BME280;7733;51.554;13.590;2023-07-08T13:00:55;100731.19;;;37.26;20.55
15263;BME280;7733;51.554;13.590;2023-07-08T13:03:29;100737.22;;;36.52;20.21
15263;BME280;7733;51.554;13.590;2023-07-08T13:05:58;100735.41;;;36.68;19.88
15263;BME280;7733;51.554;13.590;2023-07-08T13:08:29;100733.72;;;37.42;20.47
15263;BME280;7733;51.554;13.590;2023-07-08T13:10:58;100725.19;;;37.74;20.21
15263;BME280;7733;51.554;13.590;2023-07-08T13:13:33;100728.56;;;37.47;19.76
15263;BME280;7733;51.554;13.590;2023-07-08T13:16:00;100726.88;;;37.46;20.04
15263;BME280;7733;51.554;13.590;2023-07-08T13:18:37;100718.34;;;37.70;20.03
15263;BME280;7733;51.554;13.590;2023-07-08T13:21:06;100718.53;;;37.39;20.52
15263;BME280;7733;51.554;13.590;2023-07-08T13:23:35;100711.41;;;37.15;20.56
15263;BME280;7733;51.554;13.590;2023-07-08T13:26:12;100712.69;;;37.57;20.94
15263;BME280;7733;51.554;13.590;2023-07-08T13:28:40;100713.06;;;37.02;21.16
15263;BME280;7733;51.554;13.590;2023-07-08T13:31:22;100701.59;;;37.21;20.64
15263;BME280;7733;51.554;13.590;2023-07-08T13:33:54;100710.06;;;37.79;19.95
15263;BME280;7733;51.554;13.590;2023-07-08T13:36:32;100708.56;;;38.12;19.83
15263;BME280;7733;51.554;13.590;2023-07-08T13:39:02;100702.72;;;38.73;19.73
15263;BME280;7733;51.554;13.590;2023-07-08T13:41:30;100698.72;;;38.32;19.62
15263;BME280;7733;51.554;13.590;2023-07-08T13:43:56;100695.91;;;38.11;19.54
15263;BME280;7733;51.554;13.590;2023-07-08T13:46:30;100696.75;;;38.48;19.75
15263;BME280;7733;51.554;13.590;2023-07-08T13:49:00;100701.59;;;38.46;20.62
15263;BME280;7733;51.554;13.590;2023-07-08T13:51:31;100696.91;;;37.89;19.59
15263;BME280;7733;51.554;13.590;2023-07-08T13:54:07;100694.56;;;36.89;20.84
15263;BME280;7733;51.554;13.590;2023-07-08T13:56:35;100693.63;;;38.51;19.88
15263;BME280;7733;51.554;13.590;2023-07-08T13:59:06;100694.47;;;37.35;20.64
15263;BME280;7733;51.554;13.590;2023-07-08T14:01:37;100693.78;;;36.80;22.26
15263;BME280;7733;51.554;13.590;2023-07-08T14:04:05;100693.16;;;37.31;21.34
15263;BME280;7733;51.554;13.590;2023-07-08T14:06:37;100695.59;;;36.42;21.83
15263;BME280;7733;51.554;13.590;2023-07-08T14:09:18;100686.56;;;36.11;22.13
15263;BME280;7733;51.554;13.590;2023-07-08T14:11:46;100680.63;;;36.30;21.50
15263;BME280;7733;51.554;13.590;2023-07-08T14:14:12;100684.09;;;35.93;21.35